Dawes, West Virginia
Current Conditions -  °F | °C
As of 2:54 AM on Saturday 01 Nov 2014 (Local Time) from KCRW Reporting Station
Light Rain Light Rain  
Wind Chill: 38°   Ceiling: 600
Heat Index: 41°   Visibility: 2mi
Dew Point: 39°   Wind: 5mph
Humidity: 93%   Direction: 260°W
Pressure: 29.86"   Gusts: NA
Location:  38.14°N, 81.45°W
Report Text: KCRW 010654Z 26004KT 2SM -RA BR BKN006 OVC023 05/04 A2986 RMK AO2 SLP114 VLY FG P0004 T00500039
Loading
Personal Weather Stations






























Interactive Weather Map
Tropical Storm Tracking
New forecast layout! Learn more

10-Day Weather Forecast

Advertisements
Track Severe Weather on mobile